sensor_id;sensor_type;location;lat;lon;timestamp;P1;durP1;ratioP1;P2;durP2;ratioP2
57067;SDS011;43391;47.448;18.904;2023-05-10T00:01:27;9.13;;;5.57;;
57067;SDS011;43391;47.448;18.904;2023-05-10T00:03:52;8.05;;;5.70;;
57067;SDS011;43391;47.448;18.904;2023-05-10T00:06:18;6.78;;;5.57;;
57067;SDS011;43391;47.448;18.904;2023-05-10T00:08:43;7.97;;;4.78;;
57067;SDS011;43391;47.448;18.904;2023-05-10T00:11:09;7.28;;;5.20;;
57067;SDS011;43391;47.448;18.904;2023-05-10T00:13:34;7.22;;;5.03;;
57067;SDS011;43391;47.448;18.904;2023-05-10T00:15:59;8.48;;;5.68;;
57067;SDS011;43391;47.448;18.904;2023-05-10T00:18:25;6.00;;;5.25;;
57067;SDS011;43391;47.448;18.904;2023-05-10T00:20:50;7.57;;;5.57;;
57067;SDS011;43391;47.448;18.904;2023-05-10T00:23:16;6.30;;;5.63;;
57067;SDS011;43391;47.448;18.904;2023-05-10T00:25:41;10.00;;;5.88;;
57067;SDS011;43391;47.448;18.904;2023-05-10T00:28:06;10.13;;;5.68;;
57067;SDS011;43391;47.448;18.904;2023-05-10T00:30:32;8.98;;;6.10;;
57067;SDS011;43391;47.448;18.904;2023-05-10T00:32:57;15.30;;;6.00;;
57067;SDS011;43391;47.448;18.904;2023-05-10T00:35:23;8.73;;;5.93;;
57067;SDS011;43391;47.448;18.904;2023-05-10T00:37:48;7.55;;;6.28;;
57067;SDS011;43391;47.448;18.904;2023-05-10T00:40:14;7.85;;;6.45;;
57067;SDS011;43391;47.448;18.904;2023-05-10T00:42:39;8.25;;;6.60;;
57067;SDS011;43391;47.448;18.904;2023-05-10T00:45:05;9.15;;;6.38;;
57067;SDS011;43391;47.448;18.904;2023-05-10T00:47:31;9.95;;;6.82;;
57067;SDS011;43391;47.448;18.904;2023-05-10T00:49:57;7.30;;;6.60;;
57067;SDS011;43391;47.448;18.904;2023-05-10T00:52:25;8.68;;;7.00;;
57067;SDS011;43391;47.448;18.904;2023-05-10T00:54:51;9.77;;;7.13;;
57067;SDS011;43391;47.448;18.904;2023-05-10T00:57:17;7.85;;;6.57;;
57067;SDS011;43391;47.448;18.904;2023-05-10T00:59:42;11.25;;;6.72;;
57067;SDS011;43391;47.448;18.904;2023-05-10T01:02:08;9.05;;;7.35;;
57067;SDS011;43391;47.448;18.904;2023-05-10T01:04:34;8.02;;;6.47;;
57067;SDS011;43391;47.448;18.904;2023-05-10T01:07:00;10.23;;;7.45;;
57067;SDS011;43391;47.448;18.904;2023-05-10T01:09:26;10.85;;;7.03;;
57067;SDS011;43391;47.448;18.904;2023-05-10T01:11:51;8.13;;;6.85;;
57067;SDS011;43391;47.448;18.904;2023-05-10T01:14:17;8.07;;;7.28;;
57067;SDS011;43391;47.448;18.904;2023-05-10T01:16:44;10.27;;;8.05;;
57067;SDS011;43391;47.448;18.904;2023-05-10T01:33:00;10.32;;;8.43;;
57067;SDS011;43391;47.448;18.904;2023-05-10T01:35:35;10.55;;;7.72;;
57067;SDS011;43391;47.448;18.904;2023-05-10T01:43:39;8.80;;;7.05;;
57067;SDS011;43391;47.448;18.904;2023-05-10T01:46:14;9.88;;;7.43;;
57067;SDS011;43391;47.448;18.904;2023-05-10T01:48:47;10.88;;;7.32;;
57067;SDS011;43391;47.448;18.904;2023-05-10T01:51:16;11.15;;;7.50;;
57067;SDS011;43391;47.448;18.904;2023-05-10T01:53:46;9.50;;;7.65;;
57067;SDS011;43391;47.448;18.904;2023-05-10T01:56:13;11.63;;;8.38;;
57067;SDS011;43391;47.448;18.904;2023-05-10T01:58:41;11.77;;;7.78;;
57067;SDS011;43391;47.448;18.904;2023-05-10T02:01:10;10.43;;;7.53;;
57067;SDS011;43391;47.448;18.904;2023-05-10T02:03:36;12.95;;;8.15;;
57067;SDS011;43391;47.448;18.904;2023-05-10T02:06:03;11.05;;;8.23;;
57067;SDS011;43391;47.448;18.904;2023-05-10T02:08:30;14.00;;;8.02;;
57067;SDS011;43391;47.448;18.904;2023-05-10T02:10:58;12.90;;;7.50;;
57067;SDS011;43391;47.448;18.904;2023-05-10T02:13:25;9.63;;;7.60;;
57067;SDS011;43391;47.448;18.904;2023-05-10T02:15:51;11.68;;;8.00;;
57067;SDS011;43391;47.448;18.904;2023-05-10T02:18:19;9.02;;;7.47;;
57067;SDS011;43391;47.448;18.904;2023-05-10T02:20:46;11.63;;;8.48;;
57067;SDS011;43391;47.448;18.904;2023-05-10T02:23:12;14.00;;;7.53;;
57067;SDS011;43391;47.448;18.904;2023-05-10T02:25:39;12.65;;;7.63;;
57067;SDS011;43391;47.448;18.904;2023-05-10T02:28:06;10.15;;;7.50;;
57067;SDS011;43391;47.448;18.904;2023-05-10T02:30:33;8.88;;;7.72;;
57067;SDS011;43391;47.448;18.904;2023-05-10T02:32:59;14.25;;;7.28;;
57067;SDS011;43391;47.448;18.904;2023-05-10T02:35:26;10.05;;;7.85;;
57067;SDS011;43391;47.448;18.904;2023-05-10T02:37:53;12.35;;;7.70;;
57067;SDS011;43391;47.448;18.904;2023-05-10T02:40:19;10.52;;;8.15;;
57067;SDS011;43391;47.448;18.904;2023-05-10T02:42:47;12.00;;;7.50;;
57067;SDS011;43391;47.448;18.904;2023-05-10T02:45:18;10.02;;;7.35;;
57067;SDS011;43391;47.448;18.904;2023-05-10T02:47:47;9.60;;;7.40;;
57067;SDS011;43391;47.448;18.904;2023-05-10T02:50:13;10.77;;;7.35;;
57067;SDS011;43391;47.448;18.904;2023-05-10T02:52:39;13.05;;;8.13;;
57067;SDS011;43391;47.448;18.904;2023-05-10T02:55:07;10.15;;;7.35;;
57067;SDS011;43391;47.448;18.904;2023-05-10T02:57:38;10.45;;;7.95;;
57067;SDS011;43391;47.448;18.904;2023-05-10T03:00:08;9.70;;;7.72;;
57067;SDS011;43391;47.448;18.904;2023-05-10T03:02:33;11.68;;;7.10;;
57067;SDS011;43391;47.448;18.904;2023-05-10T03:04:59;9.43;;;7.38;;
57067;SDS011;43391;47.448;18.904;2023-05-10T03:07:24;10.68;;;7.28;;
57067;SDS011;43391;47.448;18.904;2023-05-10T03:09:49;8.75;;;7.43;;
57067;SDS011;43391;47.448;18.904;2023-05-10T03:12:18;11.77;;;7.57;;
57067;SDS011;43391;47.448;18.904;2023-05-10T03:18:16;10.20;;;7.57;;
57067;SDS011;43391;47.448;18.904;2023-05-10T03:20:44;9.77;;;7.40;;
57067;SDS011;43391;47.448;18.904;2023-05-10T03:23:19;9.15;;;7.20;;
57067;SDS011;43391;47.448;18.904;2023-05-10T03:25:48;10.45;;;7.85;;
57067;SDS011;43391;47.448;18.904;2023-05-10T03:28:15;11.63;;;8.10;;
57067;SDS011;43391;47.448;18.904;2023-05-10T03:30:42;11.25;;;7.57;;
57067;SDS011;43391;47.448;18.904;2023-05-10T03:33:08;12.98;;;7.32;;
57067;SDS011;43391;47.448;18.904;2023-05-10T03:35:34;13.23;;;7.90;;
57067;SDS011;43391;47.448;18.904;2023-05-10T03:37:59;10.55;;;8.07;;
57067;SDS011;43391;47.448;18.904;2023-05-10T03:40:26;13.70;;;7.57;;
57067;SDS011;43391;47.448;18.904;2023-05-10T03:42:54;10.77;;;7.80;;
57067;SDS011;43391;47.448;18.904;2023-05-10T03:45:20;10.00;;;7.55;;
57067;SDS011;43391;47.448;18.904;2023-05-10T03:47:45;11.73;;;7.63;;
57067;SDS011;43391;47.448;18.904;2023-05-10T03:50:10;11.45;;;7.75;;
57067;SDS011;43391;47.448;18.904;2023-05-10T03:52:36;10.52;;;7.78;;
57067;SDS011;43391;47.448;18.904;2023-05-10T03:55:04;10.73;;;8.05;;
57067;SDS011;43391;47.448;18.904;2023-05-10T03:57:30;13.52;;;8.38;;
57067;SDS011;43391;47.448;18.904;2023-05-10T03:59:55;10.23;;;8.32;;
57067;SDS011;43391;47.448;18.904;2023-05-10T04:02:20;11.02;;;7.75;;
57067;SDS011;43391;47.448;18.904;2023-05-10T04:04:46;13.95;;;8.35;;
57067;SDS011;43391;47.448;18.904;2023-05-10T04:07:11;10.45;;;8.23;;
57067;SDS011;43391;47.448;18.904;2023-05-10T04:09:36;12.07;;;8.23;;
57067;SDS011;43391;47.448;18.904;2023-05-10T04:12:02;10.13;;;7.68;;
57067;SDS011;43391;47.448;18.904;2023-05-10T04:14:27;12.65;;;8.18;;
57067;SDS011;43391;47.448;18.904;2023-05-10T04:16:53;12.27;;;8.25;;
57067;SDS011;43391;47.448;18.904;2023-05-10T04:19:18;12.40;;;8.18;;
57067;SDS011;43391;47.448;18.904;2023-05-10T04:21:43;11.02;;;8.50;;
57067;SDS011;43391;47.448;18.904;2023-05-10T04:24:09;11.25;;;8.52;;
57067;SDS011;43391;47.448;18.904;2023-05-10T04:26:34;14.43;;;8.77;;
57067;SDS011;43391;47.448;18.904;2023-05-10T04:29:00;12.88;;;8.70;;
57067;SDS011;43391;47.448;18.904;2023-05-10T04:31:25;11.20;;;8.45;;
57067;SDS011;43391;47.448;18.904;2023-05-10T04:33:51;12.90;;;8.77;;
57067;SDS011;43391;47.448;18.904;2023-05-10T04:36:17;10.68;;;9.05;;
57067;SDS011;43391;47.448;18.904;2023-05-10T04:38:42;11.32;;;8.43;;
57067;SDS011;43391;47.448;18.904;2023-05-10T04:41:09;9.93;;;8.20;;
57067;SDS011;43391;47.448;18.904;2023-05-10T04:43:35;12.07;;;8.43;;
57067;SDS011;43391;47.448;18.904;2023-05-10T04:46:01;13.43;;;8.20;;
57067;SDS011;43391;47.448;18.904;2023-05-10T04:48:27;13.57;;;8.40;;
57067;SDS011;43391;47.448;18.904;2023-05-10T04:50:52;11.63;;;8.27;;
57067;SDS011;43391;47.448;18.904;2023-05-10T04:53:17;12.30;;;7.95;;
57067;SDS011;43391;47.448;18.904;2023-05-10T04:55:43;13.35;;;9.18;;
57067;SDS011;43391;47.448;18.904;2023-05-10T04:58:08;11.73;;;8.70;;
57067;SDS011;43391;47.448;18.904;2023-05-10T05:00:33;13.20;;;8.30;;
57067;SDS011;43391;47.448;18.904;2023-05-10T05:02:59;11.15;;;8.43;;
57067;SDS011;43391;47.448;18.904;2023-05-10T05:05:24;11.88;;;8.82;;
57067;SDS011;43391;47.448;18.904;2023-05-10T05:07:50;11.20;;;8.73;;
57067;SDS011;43391;47.448;18.904;2023-05-10T05:10:15;13.38;;;8.52;;
57067;SDS011;43391;47.448;18.904;2023-05-10T05:12:41;10.23;;;8.18;;
57067;SDS011;43391;47.448;18.904;2023-05-10T05:15:06;10.88;;;8.65;;
57067;SDS011;43391;47.448;18.904;2023-05-10T05:17:34;10.80;;;8.90;;
57067;SDS011;43391;47.448;18.904;2023-05-10T05:19:59;14.88;;;9.10;;
57067;SDS011;43391;47.448;18.904;2023-05-10T05:22:24;8.57;;;7.38;;
57067;SDS011;43391;47.448;18.904;2023-05-10T05:24:53;13.70;;;8.20;;
57067;SDS011;43391;47.448;18.904;2023-05-10T05:27:21;11.73;;;7.75;;
57067;SDS011;43391;47.448;18.904;2023-05-10T05:29:49;11.30;;;8.20;;
57067;SDS011;43391;47.448;18.904;2023-05-10T05:32:15;11.32;;;7.65;;
57067;SDS011;43391;47.448;18.904;2023-05-10T05:34:41;13.73;;;8.00;;
57067;SDS011;43391;47.448;18.904;2023-05-10T05:37:06;14.23;;;8.25;;
57067;SDS011;43391;47.448;18.904;2023-05-10T05:39:32;12.70;;;7.70;;
57067;SDS011;43391;47.448;18.904;2023-05-10T05:41:57;11.20;;;7.10;;
57067;SDS011;43391;47.448;18.904;2023-05-10T05:44:23;11.52;;;7.00;;
57067;SDS011;43391;47.448;18.904;2023-05-10T05:46:48;11.35;;;7.00;;
57067;SDS011;43391;47.448;18.904;2023-05-10T05:49:14;9.88;;;7.70;;
57067;SDS011;43391;47.448;18.904;2023-05-10T05:51:43;10.10;;;7.97;;
57067;SDS011;43391;47.448;18.904;2023-05-10T05:54:09;12.48;;;7.93;;
57067;SDS011;43391;47.448;18.904;2023-05-10T05:56:34;9.32;;;6.75;;
57067;SDS011;43391;47.448;18.904;2023-05-10T05:59:00;7.25;;;6.55;;
57067;SDS011;43391;47.448;18.904;2023-05-10T06:01:25;8.38;;;6.88;;
57067;SDS011;43391;47.448;18.904;2023-05-10T06:03:50;12.30;;;6.72;;
57067;SDS011;43391;47.448;18.904;2023-05-10T06:06:16;11.02;;;6.85;;
57067;SDS011;43391;47.448;18.904;2023-05-10T06:08:41;7.97;;;6.55;;
57067;SDS011;43391;47.448;18.904;2023-05-10T06:11:07;12.40;;;7.53;;
57067;SDS011;43391;47.448;18.904;2023-05-10T06:13:32;14.18;;;7.78;;
57067;SDS011;43391;47.448;18.904;2023-05-10T06:15:58;11.77;;;7.05;;
57067;SDS011;43391;47.448;18.904;2023-05-10T06:18:23;9.77;;;7.20;;
57067;SDS011;43391;47.448;18.904;2023-05-10T06:20:50;10.27;;;7.18;;
57067;SDS011;43391;47.448;18.904;2023-05-10T06:23:16;12.32;;;7.50;;
57067;SDS011;43391;47.448;18.904;2023-05-10T06:25:42;11.60;;;6.72;;
57067;SDS011;43391;47.448;18.904;2023-05-10T06:28:07;11.23;;;7.22;;
57067;SDS011;43391;47.448;18.904;2023-05-10T06:30:33;8.82;;;7.55;;
57067;SDS011;43391;47.448;18.904;2023-05-10T06:32:58;12.68;;;6.78;;
57067;SDS011;43391;47.448;18.904;2023-05-10T06:35:24;11.68;;;7.05;;
57067;SDS011;43391;47.448;18.904;2023-05-10T06:37:50;15.05;;;7.07;;
57067;SDS011;43391;47.448;18.904;2023-05-10T06:40:15;7.82;;;6.25;;
57067;SDS011;43391;47.448;18.904;2023-05-10T06:42:41;9.50;;;6.72;;
57067;SDS011;43391;47.448;18.904;2023-05-10T06:45:07;11.10;;;6.43;;
57067;SDS011;43391;47.448;18.904;2023-05-10T06:47:33;9.73;;;7.20;;
57067;SDS011;43391;47.448;18.904;2023-05-10T06:49:58;7.78;;;6.45;;
57067;SDS011;43391;47.448;18.904;2023-05-10T06:52:24;14.25;;;6.80;;
57067;SDS011;43391;47.448;18.904;2023-05-10T06:54:49;11.70;;;6.60;;
57067;SDS011;43391;47.448;18.904;2023-05-10T06:57:15;10.10;;;7.10;;
57067;SDS011;43391;47.448;18.904;2023-05-10T06:59:40;9.10;;;7.50;;
57067;SDS011;43391;47.448;18.904;2023-05-10T07:02:06;9.10;;;6.93;;
57067;SDS011;43391;47.448;18.904;2023-05-10T07:04:31;8.45;;;7.03;;
57067;SDS011;43391;47.448;18.904;2023-05-10T07:06:56;9.85;;;6.20;;
57067;SDS011;43391;47.448;18.904;2023-05-10T07:09:22;9.90;;;6.82;;
57067;SDS011;43391;47.448;18.904;2023-05-10T07:11:49;7.65;;;6.82;;
57067;SDS011;43391;47.448;18.904;2023-05-10T07:14:14;8.65;;;6.72;;
57067;SDS011;43391;47.448;18.904;2023-05-10T07:16:40;7.80;;;6.95;;
57067;SDS011;43391;47.448;18.904;2023-05-10T07:19:05;10.48;;;6.70;;
57067;SDS011;43391;47.448;18.904;2023-05-10T07:21:31;7.45;;;6.32;;
57067;SDS011;43391;47.448;18.904;2023-05-10T07:23:56;12.55;;;6.80;;
57067;SDS011;43391;47.448;18.904;2023-05-10T07:26:22;7.90;;;6.35;;
57067;SDS011;43391;47.448;18.904;2023-05-10T07:28:47;9.07;;;6.20;;
57067;SDS011;43391;47.448;18.904;2023-05-10T07:31:12;8.20;;;6.35;;
57067;SDS011;43391;47.448;18.904;2023-05-10T07:33:38;10.60;;;6.28;;
57067;SDS011;43391;47.448;18.904;2023-05-10T07:36:03;7.28;;;5.80;;
57067;SDS011;43391;47.448;18.904;2023-05-10T07:38:28;7.97;;;6.68;;
57067;SDS011;43391;47.448;18.904;2023-05-10T07:40:54;7.88;;;6.53;;
57067;SDS011;43391;47.448;18.904;2023-05-10T07:43:19;7.78;;;5.93;;
57067;SDS011;43391;47.448;18.904;2023-05-10T07:45:45;8.25;;;5.97;;
57067;SDS011;43391;47.448;18.904;2023-05-10T07:48:10;9.35;;;5.68;;
57067;SDS011;43391;47.448;18.904;2023-05-10T07:50:36;8.55;;;5.95;;
57067;SDS011;43391;47.448;18.904;2023-05-10T07:53:01;7.25;;;5.03;;
57067;SDS011;43391;47.448;18.904;2023-05-10T07:55:26;8.98;;;5.25;;
57067;SDS011;43391;47.448;18.904;2023-05-10T07:57:52;8.35;;;4.93;;
57067;SDS011;43391;47.448;18.904;2023-05-10T08:00:17;8.77;;;4.97;;
57067;SDS011;43391;47.448;18.904;2023-05-10T08:02:44;5.88;;;4.75;;
57067;SDS011;43391;47.448;18.904;2023-05-10T08:05:10;8.48;;;5.30;;
57067;SDS011;43391;47.448;18.904;2023-05-10T08:07:35;6.85;;;4.82;;
57067;SDS011;43391;47.448;18.904;2023-05-10T08:10:01;5.80;;;4.82;;
57067;SDS011;43391;47.448;18.904;2023-05-10T08:12:27;8.85;;;5.00;;
57067;SDS011;43391;47.448;18.904;2023-05-10T08:14:52;9.40;;;5.45;;
57067;SDS011;43391;47.448;18.904;2023-05-10T08:17:18;7.68;;;5.30;;
57067;SDS011;43391;47.448;18.904;2023-05-10T08:19:43;4.50;;;4.10;;
57067;SDS011;43391;47.448;18.904;2023-05-10T08:22:08;5.70;;;4.80;;
57067;SDS011;43391;47.448;18.904;2023-05-10T08:24:34;9.20;;;5.28;;
57067;SDS011;43391;47.448;18.904;2023-05-10T08:27:03;8.35;;;5.13;;
57067;SDS011;43391;47.448;18.904;2023-05-10T08:29:30;7.28;;;4.95;;
57067;SDS011;43391;47.448;18.904;2023-05-10T08:31:55;6.70;;;4.60;;
57067;SDS011;43391;47.448;18.904;2023-05-10T08:34:20;7.68;;;5.40;;
57067;SDS011;43391;47.448;18.904;2023-05-10T08:36:46;11.02;;;4.93;;
57067;SDS011;43391;47.448;18.904;2023-05-10T08:39:11;6.95;;;4.90;;
57067;SDS011;43391;47.448;18.904;2023-05-10T08:41:36;5.30;;;4.80;;
57067;SDS011;43391;47.448;18.904;2023-05-10T08:44:04;5.80;;;5.18;;
57067;SDS011;43391;47.448;18.904;2023-05-10T08:46:33;5.90;;;4.72;;
57067;SDS011;43391;47.448;18.904;2023-05-10T08:51:29;8.60;;;5.13;;
57067;SDS011;43391;47.448;18.904;2023-05-10T08:53:58;7.20;;;4.57;;
57067;SDS011;43391;47.448;18.904;2023-05-10T08:56:24;9.43;;;5.35;;
57067;SDS011;43391;47.448;18.904;2023-05-10T08:58:50;9.50;;;5.78;;
57067;SDS011;43391;47.448;18.904;2023-05-10T09:01:16;5.45;;;4.95;;
57067;SDS011;43391;47.448;18.904;2023-05-10T09:03:43;7.72;;;5.03;;
57067;SDS011;43391;47.448;18.904;2023-05-10T09:06:11;9.40;;;4.25;;
57067;SDS011;43391;47.448;18.904;2023-05-10T09:08:38;6.07;;;4.38;;
57067;SDS011;43391;47.448;18.904;2023-05-10T09:11:03;7.93;;;4.80;;
57067;SDS011;43391;47.448;18.904;2023-05-10T09:13:30;6.18;;;4.65;;
57067;SDS011;43391;47.448;18.904;2023-05-10T09:15:56;6.18;;;4.82;;
57067;SDS011;43391;47.448;18.904;2023-05-10T09:18:22;7.47;;;4.35;;
57067;SDS011;43391;47.448;18.904;2023-05-10T09:20:47;8.52;;;4.72;;
57067;SDS011;43391;47.448;18.904;2023-05-10T09:23:13;7.57;;;4.50;;
57067;SDS011;43391;47.448;18.904;2023-05-10T09:25:38;6.65;;;4.25;;
57067;SDS011;43391;47.448;18.904;2023-05-10T09:28:06;8.10;;;4.82;;
57067;SDS011;43391;47.448;18.904;2023-05-10T09:30:33;6.97;;;4.38;;
57067;SDS011;43391;47.448;18.904;2023-05-10T09:32:59;6.20;;;3.97;;
57067;SDS011;43391;47.448;18.904;2023-05-10T09:35:26;5.97;;;4.20;;
57067;SDS011;43391;47.448;18.904;2023-05-10T09:37:54;9.10;;;4.95;;
57067;SDS011;43391;47.448;18.904;2023-05-10T09:45:29;5.22;;;4.40;;
57067;SDS011;43391;47.448;18.904;2023-05-10T09:47:56;6.55;;;4.88;;
57067;SDS011;43391;47.448;18.904;2023-05-10T09:50:22;9.77;;;4.78;;
57067;SDS011;43391;47.448;18.904;2023-05-10T09:55:14;7.13;;;5.20;;
57067;SDS011;43391;47.448;18.904;2023-05-10T09:57:40;7.85;;;4.60;;
57067;SDS011;43391;47.448;18.904;2023-05-10T10:00:06;8.43;;;5.32;;
57067;SDS011;43391;47.448;18.904;2023-05-10T10:02:32;5.47;;;4.57;;
57067;SDS011;43391;47.448;18.904;2023-05-10T10:05:00;6.88;;;5.22;;
57067;SDS011;43391;47.448;18.904;2023-05-10T10:07:26;8.05;;;5.45;;
57067;SDS011;43391;47.448;18.904;2023-05-10T10:09:52;5.78;;;4.32;;
57067;SDS011;43391;47.448;18.904;2023-05-10T10:12:18;7.57;;;3.90;;
57067;SDS011;43391;47.448;18.904;2023-05-10T10:14:45;6.20;;;4.97;;
57067;SDS011;43391;47.448;18.904;2023-05-10T10:17:12;6.63;;;4.82;;
57067;SDS011;43391;47.448;18.904;2023-05-10T10:19:38;6.43;;;4.72;;
57067;SDS011;43391;47.448;18.904;2023-05-10T10:22:04;4.57;;;3.97;;
57067;SDS011;43391;47.448;18.904;2023-05-10T10:24:30;6.88;;;4.63;;
57067;SDS011;43391;47.448;18.904;2023-05-10T10:26:57;6.20;;;4.40;;
57067;SDS011;43391;47.448;18.904;2023-05-10T10:34:38;5.68;;;3.92;;
57067;SDS011;43391;47.448;18.904;2023-05-10T10:37:05;5.47;;;3.92;;
57067;SDS011;43391;47.448;18.904;2023-05-10T10:39:31;5.35;;;3.58;;
57067;SDS011;43391;47.448;18.904;2023-05-10T10:41:57;5.38;;;4.18;;
57067;SDS011;43391;47.448;18.904;2023-05-10T10:49:53;6.95;;;3.67;;
57067;SDS011;43391;47.448;18.904;2023-05-10T10:52:28;9.00;;;4.10;;
57067;SDS011;43391;47.448;18.904;2023-05-10T11:00:24;4.30;;;3.22;;
57067;SDS011;43391;47.448;18.904;2023-05-10T11:02:57;4.95;;;3.50;;
57067;SDS011;43391;47.448;18.904;2023-05-10T11:05:45;4.53;;;3.60;;
57067;SDS011;43391;47.448;18.904;2023-05-10T11:10:39;5.63;;;3.35;;
57067;SDS011;43391;47.448;18.904;2023-05-10T11:13:06;5.07;;;3.30;;
57067;SDS011;43391;47.448;18.904;2023-05-10T11:15:33;5.97;;;3.30;;
57067;SDS011;43391;47.448;18.904;2023-05-10T11:18:01;3.97;;;3.17;;
57067;SDS011;43391;47.448;18.904;2023-05-10T11:20:49;8.15;;;3.55;;
57067;SDS011;43391;47.448;18.904;2023-05-10T11:23:16;5.82;;;3.25;;
57067;SDS011;43391;47.448;18.904;2023-05-10T11:25:43;6.40;;;3.15;;
57067;SDS011;43391;47.448;18.904;2023-05-10T11:28:09;5.50;;;3.30;;
57067;SDS011;43391;47.448;18.904;2023-05-10T11:30:36;7.80;;;3.40;;
57067;SDS011;43391;47.448;18.904;2023-05-10T11:33:02;4.53;;;3.20;;
57067;SDS011;43391;47.448;18.904;2023-05-10T11:35:28;6.20;;;3.42;;
57067;SDS011;43391;47.448;18.904;2023-05-10T11:37:53;4.03;;;2.72;;
57067;SDS011;43391;47.448;18.904;2023-05-10T11:40:21;6.22;;;3.05;;
57067;SDS011;43391;47.448;18.904;2023-05-10T11:42:49;5.30;;;3.15;;
57067;SDS011;43391;47.448;18.904;2023-05-10T11:45:15;4.68;;;2.95;;
57067;SDS011;43391;47.448;18.904;2023-05-10T11:47:40;4.35;;;3.17;;
57067;SDS011;43391;47.448;18.904;2023-05-10T11:50:08;4.50;;;3.00;;
57067;SDS011;43391;47.448;18.904;2023-05-10T11:52:37;4.00;;;2.90;;
57067;SDS011;43391;47.448;18.904;2023-05-10T11:55:02;4.75;;;3.30;;
57067;SDS011;43391;47.448;18.904;2023-05-10T11:57:28;3.75;;;2.78;;
57067;SDS011;43391;47.448;18.904;2023-05-10T11:59:54;3.75;;;2.95;;
57067;SDS011;43391;47.448;18.904;2023-05-10T12:02:21;4.07;;;2.55;;
57067;SDS011;43391;47.448;18.904;2023-05-10T12:04:46;4.97;;;2.53;;
57067;SDS011;43391;47.448;18.904;2023-05-10T12:07:12;3.85;;;3.00;;
57067;SDS011;43391;47.448;18.904;2023-05-10T12:09:43;6.40;;;3.15;;
57067;SDS011;43391;47.448;18.904;2023-05-10T12:12:10;2.95;;;2.42;;
57067;SDS011;43391;47.448;18.904;2023-05-10T12:14:40;3.67;;;2.75;;
57067;SDS011;43391;47.448;18.904;2023-05-10T12:17:05;5.10;;;2.78;;
57067;SDS011;43391;47.448;18.904;2023-05-10T12:19:37;3.90;;;2.50;;
57067;SDS011;43391;47.448;18.904;2023-05-10T12:22:04;4.18;;;2.80;;
57067;SDS011;43391;47.448;18.904;2023-05-10T12:24:30;2.97;;;2.30;;
57067;SDS011;43391;47.448;18.904;2023-05-10T12:26:56;5.55;;;2.90;;
57067;SDS011;43391;47.448;18.904;2023-05-10T12:29:21;4.07;;;2.80;;
57067;SDS011;43391;47.448;18.904;2023-05-10T12:31:54;3.65;;;2.88;;
57067;SDS011;43391;47.448;18.904;2023-05-10T12:34:26;4.95;;;2.90;;
57067;SDS011;43391;47.448;18.904;2023-05-10T12:36:58;4.43;;;2.60;;
57067;SDS011;43391;47.448;18.904;2023-05-10T12:39:24;9.40;;;3.30;;
57067;SDS011;43391;47.448;18.904;2023-05-10T12:41:50;4.22;;;2.88;;
57067;SDS011;43391;47.448;18.904;2023-05-10T12:44:16;3.20;;;2.90;;
57067;SDS011;43391;47.448;18.904;2023-05-10T12:46:42;5.28;;;3.33;;
57067;SDS011;43391;47.448;18.904;2023-05-10T12:49:07;6.10;;;3.53;;
57067;SDS011;43391;47.448;18.904;2023-05-10T12:51:32;5.57;;;3.08;;
57067;SDS011;43391;47.448;18.904;2023-05-10T12:53:58;3.15;;;2.38;;
57067;SDS011;43391;47.448;18.904;2023-05-10T12:56:23;5.57;;;3.30;;
57067;SDS011;43391;47.448;18.904;2023-05-10T12:58:48;4.97;;;3.00;;
57067;SDS011;43391;47.448;18.904;2023-05-10T13:01:14;5.30;;;2.80;;
57067;SDS011;43391;47.448;18.904;2023-05-10T13:03:40;3.08;;;2.55;;
57067;SDS011;43391;47.448;18.904;2023-05-10T13:06:05;4.13;;;2.53;;
57067;SDS011;43391;47.448;18.904;2023-05-10T13:08:33;4.03;;;2.72;;
57067;SDS011;43391;47.448;18.904;2023-05-10T13:11:02;5.18;;;2.92;;
57067;SDS011;43391;47.448;18.904;2023-05-10T13:15:53;2.30;;;2.10;;
57067;SDS011;43391;47.448;18.904;2023-05-10T13:18:19;5.13;;;2.50;;
57067;SDS011;43391;47.448;18.904;2023-05-10T13:20:44;3.85;;;3.25;;
57067;SDS011;43391;47.448;18.904;2023-05-10T13:23:09;3.05;;;2.38;;
57067;SDS011;43391;47.448;18.904;2023-05-10T13:25:35;7.40;;;6.68;;
57067;SDS011;43391;47.448;18.904;2023-05-10T13:28:01;4.53;;;2.50;;
57067;SDS011;43391;47.448;18.904;2023-05-10T13:30:27;3.08;;;2.40;;
57067;SDS011;43391;47.448;18.904;2023-05-10T13:32:53;4.05;;;2.47;;
57067;SDS011;43391;47.448;18.904;2023-05-10T13:35:19;3.15;;;2.42;;
57067;SDS011;43391;47.448;18.904;2023-05-10T13:37:44;3.85;;;2.40;;
57067;SDS011;43391;47.448;18.904;2023-05-10T13:40:10;9.43;;;2.55;;
57067;SDS011;43391;47.448;18.904;2023-05-10T13:42:35;4.50;;;2.17;;
57067;SDS011;43391;47.448;18.904;2023-05-10T13:45:01;4.00;;;2.50;;
57067;SDS011;43391;47.448;18.904;2023-05-10T13:47:27;2.95;;;2.65;;
57067;SDS011;43391;47.448;18.904;2023-05-10T13:49:52;5.95;;;2.65;;
57067;SDS011;43391;47.448;18.904;2023-05-10T13:52:18;5.60;;;4.28;;
57067;SDS011;43391;47.448;18.904;2023-05-10T13:54:43;7.15;;;2.53;;
57067;SDS011;43391;47.448;18.904;2023-05-10T13:57:09;2.55;;;2.20;;
57067;SDS011;43391;47.448;18.904;2023-05-10T13:59:36;12.15;;;4.85;;
57067;SDS011;43391;47.448;18.904;2023-05-10T14:02:02;3.83;;;3.13;;
57067;SDS011;43391;47.448;18.904;2023-05-10T14:04:29;6.75;;;2.70;;
57067;SDS011;43391;47.448;18.904;2023-05-10T14:06:55;2.70;;;2.22;;
57067;SDS011;43391;47.448;18.904;2023-05-10T14:09:20;5.78;;;2.38;;
57067;SDS011;43391;47.448;18.904;2023-05-10T14:11:46;3.40;;;2.28;;
57067;SDS011;43391;47.448;18.904;2023-05-10T14:14:11;3.20;;;2.42;;
57067;SDS011;43391;47.448;18.904;2023-05-10T14:16:38;3.63;;;2.25;;
57067;SDS011;43391;47.448;18.904;2023-05-10T14:19:06;3.72;;;2.63;;
57067;SDS011;43391;47.448;18.904;2023-05-10T14:21:31;5.65;;;2.80;;
57067;SDS011;43391;47.448;18.904;2023-05-10T14:23:57;4.18;;;2.08;;
57067;SDS011;43391;47.448;18.904;2023-05-10T14:26:22;4.30;;;2.40;;
57067;SDS011;43391;47.448;18.904;2023-05-10T14:28:47;3.67;;;2.35;;
57067;SDS011;43391;47.448;18.904;2023-05-10T14:31:13;7.30;;;3.20;;
57067;SDS011;43391;47.448;18.904;2023-05-10T14:33:39;3.30;;;2.25;;
57067;SDS011;43391;47.448;18.904;2023-05-10T14:36:05;3.10;;;2.40;;
57067;SDS011;43391;47.448;18.904;2023-05-10T14:38:31;2.35;;;2.10;;
57067;SDS011;43391;47.448;18.904;2023-05-10T14:40:56;4.32;;;2.45;;
57067;SDS011;43391;47.448;18.904;2023-05-10T14:43:22;2.42;;;2.22;;
57067;SDS011;43391;47.448;18.904;2023-05-10T14:45:48;4.10;;;2.58;;
57067;SDS011;43391;47.448;18.904;2023-05-10T14:48:13;2.20;;;2.00;;
57067;SDS011;43391;47.448;18.904;2023-05-10T14:50:41;3.33;;;2.43;;
57067;SDS011;43391;47.448;18.904;2023-05-10T14:53:06;2.95;;;2.58;;
57067;SDS011;43391;47.448;18.904;2023-05-10T14:55:31;3.67;;;2.50;;
57067;SDS011;43391;47.448;18.904;2023-05-10T14:57:57;4.45;;;2.17;;
57067;SDS011;43391;47.448;18.904;2023-05-10T15:00:23;6.10;;;2.03;;
57067;SDS011;43391;47.448;18.904;2023-05-10T15:02:48;3.45;;;2.13;;
57067;SDS011;43391;47.448;18.904;2023-05-10T15:05:14;3.92;;;2.35;;
57067;SDS011;43391;47.448;18.904;2023-05-10T15:07:40;4.25;;;2.60;;
57067;SDS011;43391;47.448;18.904;2023-05-10T15:10:05;2.30;;;2.10;;
57067;SDS011;43391;47.448;18.904;2023-05-10T15:12:31;5.78;;;2.05;;
57067;SDS011;43391;47.448;18.904;2023-05-10T15:14:56;3.55;;;2.63;;
57067;SDS011;43391;47.448;18.904;2023-05-10T15:17:22;2.83;;;2.45;;
57067;SDS011;43391;47.448;18.904;2023-05-10T15:19:47;6.03;;;2.58;;